Time,TemperatureF,DewpointF,PressureIn,WindDirection,WindDirectionDegrees,WindSpeedMPH,WindSpeedGustMPH,Humidity,HourlyPrecipIn,Conditions,Clouds,dailyrainin,SolarRadiationWatts/m^2,SoftwareType,DateUTC
2013-04-28 00:32:00,44.0,29.0,-100.00,East,84,0.0,4.0,56,-99.99,,,0.00,0.000000,,2013-04-28 07:32:00,
2013-04-28 01:01:00,44.0,29.0,-100.00,East,84,0.0,4.0,56,-99.99,,,0.00,0.000000,,2013-04-28 08:01:00,
2013-04-28 01:32:00,41.0,26.0,-100.00,ESE,111,0.0,2.0,54,-99.99,,,0.00,0.000000,,2013-04-28 08:32:00,
2013-04-28 02:02:00,43.0,22.0,-100.00,ESE,114,0.0,5.0,42,-99.99,,,0.00,0.000000,,2013-04-28 09:02:00,
2013-04-28 02:33:00,43.0,22.0,-100.00,ESE,114,0.0,5.0,42,-99.99,,,0.00,0.000000,,2013-04-28 09:33:00,
2013-04-28 02:42:00,43.0,22.0,-100.00,ESE,114,0.0,5.0,42,-99.99,,,0.00,0.000000,,2013-04-28 09:42:00,
2013-04-28 02:53:00,43.0,22.0,-100.00,ESE,114,0.0,5.0,42,-99.99,,,0.00,0.000000,,2013-04-28 09:53:00,
2013-04-28 03:32:00,41.0,18.0,-100.00,SE,133,0.0,5.0,39,0.00,,,0.00,0.000000,,2013-04-28 10:32:00,
2013-04-28 04:32:00,38.0,18.0,-100.00,ESE,109,0.0,4.0,43,0.00,,,0.00,0.000000,,2013-04-28 11:32:00,
2013-04-28 05:32:00,37.0,16.0,-100.00,SE,133,0.0,3.0,41,-99.99,,,0.00,0.000000,,2013-04-28 12:32:00,
2013-04-28 06:01:00,37.0,16.0,-100.00,SE,133,0.0,3.0,41,-99.99,,,0.00,0.000000,,2013-04-28 13:01:00,
2013-04-28 06:32:00,37.0,14.0,-100.00,ESE,115,0.0,4.0,39,-99.99,,,0.00,0.000000,,2013-04-28 13:32:00,
2013-04-28 07:01:00,37.0,14.0,-100.00,ESE,115,0.0,4.0,39,-99.99,,,0.00,0.000000,,2013-04-28 14:01:00,
2013-04-28 07:32:00,37.0,18.0,-100.00,East,91,0.0,6.0,45,0.00,,,0.00,16.000000,,2013-04-28 14:32:00,
2013-04-28 08:02:00,50.0,23.0,-100.00,East,85,1.0,7.0,34,-99.99,,,0.00,205.000000,,2013-04-28 15:02:00,
2013-04-28 08:22:00,50.0,23.0,-100.00,East,85,1.0,7.0,34,-99.99,,,0.00,205.000000,,2013-04-28 15:22:00,
2013-04-28 08:33:00,50.0,23.0,-100.00,East,85,1.0,7.0,34,-99.99,,,0.00,205.000000,,2013-04-28 15:33:00,
2013-04-28 08:42:00,50.0,23.0,-100.00,East,85,1.0,7.0,34,-99.99,,,0.00,205.000000,,2013-04-28 15:42:00,
2013-04-28 08:53:00,50.0,23.0,-100.00,East,85,1.0,7.0,34,-99.99,,,0.00,205.000000,,2013-04-28 15:53:00,
2013-04-28 09:02:00,62.0,31.0,-100.00,SSW,211,0.0,6.0,31,0.00,,,0.00,503.000000,,2013-04-28 16:02:00,
2013-04-28 09:23:00,62.0,31.0,-100.00,SSW,211,0.0,6.0,31,0.00,,,0.00,503.000000,,2013-04-28 16:23:00,
2013-04-28 09:33:00,62.0,31.0,-100.00,SSW,211,0.0,6.0,31,0.00,,,0.00,503.000000,,2013-04-28 16:33:00,
2013-04-28 09:43:00,62.0,31.0,-100.00,SSW,211,0.0,6.0,31,0.00,,,0.00,503.000000,,2013-04-28 16:43:00,
2013-04-28 09:52:00,62.0,31.0,-100.00,SSW,211,0.0,6.0,31,0.00,,,0.00,503.000000,,2013-04-28 16:52:00,
2013-04-28 10:32:00,70.0,30.0,-100.00,WSW,238,0.0,0.0,23,0.00,,,0.00,726.000000,,2013-04-28 17:32:00,
2013-04-28 10:43:00,70.0,30.0,-100.00,WSW,238,0.0,0.0,23,0.00,,,0.00,726.000000,,2013-04-28 17:43:00,
2013-04-28 10:52:00,70.0,30.0,-100.00,WSW,238,0.0,0.0,23,0.00,,,0.00,726.000000,,2013-04-28 17:52:00,
2013-04-28 11:01:00,70.0,30.0,-100.00,WSW,238,0.0,0.0,23,0.00,,,0.00,726.000000,,2013-04-28 18:01:00,
2013-04-28 11:32:00,74.0,26.0,-100.00,NW,325,2.0,7.0,17,0.00,,,0.00,477.000000,,2013-04-28 18:32:00,
2013-04-28 11:42:00,74.0,26.0,-100.00,NW,325,2.0,7.0,17,0.00,,,0.00,477.000000,,2013-04-28 18:42:00,
2013-04-28 11:52:00,74.0,26.0,-100.00,NW,325,2.0,7.0,17,0.00,,,0.00,477.000000,,2013-04-28 18:52:00,
2013-04-28 12:01:00,74.0,26.0,-100.00,NW,325,2.0,7.0,17,0.00,,,0.00,477.000000,,2013-04-28 19:01:00,
2013-04-28 12:22:00,76.0,23.0,-100.00,NNW,331,3.0,8.0,14,0.00,,,0.00,957.000000,,2013-04-28 19:22:00,
2013-04-28 12:32:00,76.0,23.0,-100.00,NNW,331,3.0,8.0,14,0.00,,,0.00,957.000000,,2013-04-28 19:32:00,
2013-04-28 12:42:00,76.0,23.0,-100.00,NNW,331,3.0,8.0,14,0.00,,,0.00,957.000000,,2013-04-28 19:42:00,
2013-04-28 12:52:00,76.0,23.0,-100.00,NNW,331,3.0,8.0,14,0.00,,,0.00,957.000000,,2013-04-28 19:52:00,
2013-04-28 13:01:00,76.0,23.0,-100.00,NNW,331,3.0,8.0,14,0.00,,,0.00,957.000000,,2013-04-28 20:01:00,
2013-04-28 13:33:00,77.0,26.0,-100.00,NW,311,3.0,11.0,15,0.00,,,0.00,1099.000000,,2013-04-28 20:33:00,
2013-04-28 13:42:00,77.0,26.0,-100.00,NW,311,3.0,11.0,15,0.00,,,0.00,1099.000000,,2013-04-28 20:42:00,
2013-04-28 13:52:00,77.0,26.0,-100.00,NW,311,3.0,11.0,15,0.00,,,0.00,1099.000000,,2013-04-28 20:52:00,
2013-04-28 14:01:00,77.0,26.0,-100.00,NW,311,3.0,11.0,15,0.00,,,0.00,1099.000000,,2013-04-28 21:01:00,
2013-04-28 14:02:00,76.0,25.0,-100.00,NW,304,2.0,11.0,15,0.00,,,0.00,1037.000000,,2013-04-28 21:02:00,
2013-04-28 14:33:00,76.0,25.0,-100.00,NW,304,2.0,11.0,15,0.00,,,0.00,1037.000000,,2013-04-28 21:33:00,
2013-04-28 14:42:00,76.0,25.0,-100.00,NW,304,2.0,11.0,15,0.00,,,0.00,1037.000000,,2013-04-28 21:42:00,
2013-04-28 14:53:00,76.0,25.0,-100.00,NW,304,2.0,11.0,15,0.00,,,0.00,1037.000000,,2013-04-28 21:53:00,
2013-04-28 15:02:00,78.0,25.0,-100.00,NNW,344,2.0,8.0,14,0.00,,,0.00,857.000000,,2013-04-28 22:02:00,
2013-04-28 15:23:00,78.0,25.0,-100.00,NNW,344,2.0,8.0,14,0.00,,,0.00,857.000000,,2013-04-28 22:23:00,
2013-04-28 15:34:00,78.0,25.0,-100.00,NNW,344,2.0,8.0,14,0.00,,,0.00,857.000000,,2013-04-28 22:34:00,
2013-04-28 15:42:00,78.0,25.0,-100.00,NNW,344,2.0,8.0,14,0.00,,,0.00,857.000000,,2013-04-28 22:42:00,
2013-04-28 15:52:00,78.0,25.0,-100.00,NNW,344,2.0,8.0,14,0.00,,,0.00,857.000000,,2013-04-28 22:52:00,
2013-04-28 16:32:00,77.0,33.0,-100.00,NW,309,1.0,9.0,20,0.00,,,0.00,699.000000,,2013-04-28 23:32:00,
2013-04-28 16:42:00,77.0,33.0,-100.00,NW,309,1.0,9.0,20,0.00,,,0.00,699.000000,,2013-04-28 23:42:00,
2013-04-28 16:52:00,77.0,33.0,-100.00,NW,309,1.0,9.0,20,0.00,,,0.00,699.000000,,2013-04-28 23:52:00,
2013-04-28 17:01:00,77.0,33.0,-100.00,NW,309,1.0,9.0,20,0.00,,,0.00,699.000000,,2013-04-29 00:01:00,
2013-04-28 17:32:00,76.0,36.0,-100.00,NW,313,2.0,9.0,23,0.00,,,0.00,657.000000,,2013-04-29 00:32:00,
2013-04-28 17:42:00,76.0,36.0,-100.00,NW,313,2.0,9.0,23,0.00,,,0.00,657.000000,,2013-04-29 00:42:00,
2013-04-28 17:52:00,76.0,36.0,-100.00,NW,313,2.0,9.0,23,0.00,,,0.00,657.000000,,2013-04-29 00:52:00,
2013-04-28 18:01:00,76.0,36.0,-100.00,NW,313,2.0,9.0,23,0.00,,,0.00,657.000000,,2013-04-29 01:01:00,
2013-04-28 18:22:00,72.0,36.0,-100.00,West,281,2.0,10.0,27,0.00,,,0.00,325.000000,,2013-04-29 01:22:00,
2013-04-28 18:32:00,72.0,36.0,-100.00,West,281,2.0,10.0,27,0.00,,,0.00,325.000000,,2013-04-29 01:32:00,
2013-04-28 18:42:00,72.0,36.0,-100.00,West,281,2.0,10.0,27,0.00,,,0.00,325.000000,,2013-04-29 01:42:00,
2013-04-28 18:52:00,72.0,36.0,-100.00,West,281,2.0,10.0,27,0.00,,,0.00,325.000000,,2013-04-29 01:52:00,
2013-04-28 19:01:00,72.0,36.0,-100.00,West,281,2.0,10.0,27,0.00,,,0.00,325.000000,,2013-04-29 02:01:00,
2013-04-28 19:32:00,66.0,38.0,-100.00,NNW,335,0.0,8.0,35,0.00,,,0.00,104.000000,,2013-04-29 02:32:00,
2013-04-28 19:42:00,66.0,38.0,-100.00,NNW,335,0.0,8.0,35,0.00,,,0.00,104.000000,,2013-04-29 02:42:00,
2013-04-28 19:52:00,66.0,38.0,-100.00,NNW,335,0.0,8.0,35,0.00,,,0.00,104.000000,,2013-04-29 02:52:00,
2013-04-28 20:01:00,66.0,38.0,-100.00,NNW,335,0.0,8.0,35,0.00,,,0.00,104.000000,,2013-04-29 03:01:00,
2013-04-28 20:02:00,60.0,40.0,-100.00,ESE,113,0.0,5.0,47,0.00,,,0.00,16.000000,,2013-04-29 03:02:00,
2013-04-28 20:22:00,60.0,40.0,-100.00,ESE,113,0.0,5.0,47,0.00,,,0.00,16.000000,,2013-04-29 03:22:00,
2013-04-28 20:33:00,60.0,40.0,-100.00,ESE,113,0.0,5.0,47,0.00,,,0.00,16.000000,,2013-04-29 03:33:00,
2013-04-28 20:42:00,60.0,40.0,-100.00,ESE,113,0.0,5.0,47,0.00,,,0.00,16.000000,,2013-04-29 03:42:00,
2013-04-28 20:53:00,60.0,40.0,-100.00,ESE,113,0.0,5.0,47,0.00,,,0.00,16.000000,,2013-04-29 03:53:00,
2013-04-28 21:02:00,55.0,40.0,-100.00,ENE,67,0.0,0.0,56,0.00,,,0.00,0.000000,,2013-04-29 04:02:00,
2013-04-28 21:23:00,55.0,40.0,-100.00,ENE,67,0.0,0.0,56,0.00,,,0.00,0.000000,,2013-04-29 04:23:00,
2013-04-28 21:33:00,55.0,40.0,-100.00,ENE,67,0.0,0.0,56,0.00,,,0.00,0.000000,,2013-04-29 04:33:00,
2013-04-28 21:43:00,55.0,40.0,-100.00,ENE,67,0.0,0.0,56,0.00,,,0.00,0.000000,,2013-04-29 04:43:00,
2013-04-28 21:52:00,55.0,40.0,-100.00,ENE,67,0.0,0.0,56,0.00,,,0.00,0.000000,,2013-04-29 04:52:00,
2013-04-28 22:02:00,52.0,39.0,-100.00,East,91,0.0,3.0,62,0.00,,,0.00,0.000000,,2013-04-29 05:02:00,
2013-04-28 22:32:00,52.0,39.0,-100.00,East,91,0.0,3.0,62,0.00,,,0.00,0.000000,,2013-04-29 05:32:00,
2013-04-28 22:42:00,52.0,39.0,-100.00,East,91,0.0,3.0,62,0.00,,,0.00,0.000000,,2013-04-29 05:42:00,
2013-04-28 22:52:00,52.0,39.0,-100.00,East,91,0.0,3.0,62,0.00,,,0.00,0.000000,,2013-04-29 05:52:00,
2013-04-28 23:22:00,48.0,38.0,-100.00,East,91,0.0,0.0,67,0.00,,,0.00,0.000000,,2013-04-29 06:22:00,
2013-04-28 23:32:00,48.0,38.0,-100.00,East,91,0.0,0.0,67,0.00,,,0.00,0.000000,,2013-04-29 06:32:00,